Time;durP1;ratioP1;P1;durP2;ratioP2;P2;SDS_P1;SDS_P2;PMS_P1;PMS_P2;Temp;Humidity;BMP_temperature;BMP_pressure;BME280_temperature;BME280_humidity;BME280_pressure;Samples;Min_cycle;Max_cycle;Signal;HPM_P1;HPM_P2
2022/07/11 00:02:15;;;;;;;5.33;2.57;;;13.10;78.00;;;;;;4992458;28;20651;-59
2022/07/11 00:04:45;;;;;;;3.10;2.80;;;13.00;78.80;;;;;;4984563;28;20197;-59
2022/07/11 00:07:11;;;;;;;4.00;2.40;;;13.00;80.00;;;;;;4989555;28;20498;-59
2022/07/11 00:09:36;;;;;;;7.20;3.07;;;12.90;80.30;;;;;;4991012;28;20436;-59
2022/07/11 00:12:02;;;;;;;5.20;2.70;;;12.80;80.60;;;;;;4987042;28;20196;-59
2022/07/11 00:14:28;;;;;;;2.20;2.00;;;12.80;80.60;;;;;;4990836;28;20666;-60
2022/07/11 00:16:54;;;;;;;4.03;2.87;;;12.70;81.70;;;;;;4991261;28;20458;-59
2022/07/11 00:19:21;;;;;;;5.07;2.30;;;12.60;82.10;;;;;;4987452;28;20264;-59
2022/07/11 00:21:47;;;;;;;2.70;2.20;;;12.60;82.80;;;;;;4985432;28;20538;-59
2022/07/11 00:24:13;;;;;;;12.93;2.30;;;12.50;83.80;;;;;;4990197;28;20467;-59
2022/07/11 00:26:38;;;;;;;3.37;2.40;;;12.40;84.50;;;;;;4992260;28;20462;-59
2022/07/11 00:29:05;;;;;;;4.53;2.60;;;12.40;84.90;;;;;;4988082;28;20201;-59
2022/07/11 00:31:31;;;;;;;3.30;2.53;;;12.40;86.50;;;;;;4983602;28;20194;-58
2022/07/11 00:33:57;;;;;;;3.80;2.60;;;12.40;86.30;;;;;;4988874;28;20432;-59
2022/07/11 00:36:23;;;;;;;5.57;2.60;;;12.40;86.50;;;;;;4987428;28;20461;-59
2022/07/11 00:38:49;;;;;;;3.47;2.70;;;12.40;86.80;;;;;;4989316;28;20475;-59
2022/07/11 00:41:16;;;;;;;6.40;2.90;;;12.30;87.50;;;;;;4991357;28;20780;-59
2022/07/11 00:43:42;;;;;;;2.93;2.73;;;12.30;88.20;;;;;;4990783;28;20428;-59
2022/07/11 00:46:09;;;;;;;3.20;2.80;;;12.40;88.00;;;;;;4988364;28;20508;-60
2022/07/11 00:48:35;;;;;;;3.70;2.53;;;12.40;89.20;;;;;;4988163;28;20173;-59
2022/07/11 00:51:04;;;;;;;3.30;2.63;;;12.40;88.60;;;;;;4991767;28;20935;-59
2022/07/11 00:53:31;;;;;;;6.23;2.63;;;12.40;89.00;;;;;;4987270;28;20432;-60
2022/07/11 00:55:57;;;;;;;3.63;2.73;;;12.30;89.10;;;;;;4989623;28;20447;-59
2022/07/11 00:58:23;;;;;;;4.57;2.93;;;12.30;89.50;;;;;;4990326;28;20441;-60
2022/07/11 01:00:49;;;;;;;4.40;2.53;;;12.30;89.50;;;;;;4991978;28;20804;-59
2022/07/11 01:03:15;;;;;;;3.90;2.50;;;12.30;90.00;;;;;;4989623;28;20240;-59
2022/07/11 01:05:41;;;;;;;10.23;2.53;;;12.20;89.50;;;;;;4989405;28;20783;-60
2022/07/11 01:08:06;;;;;;;4.00;2.90;;;12.20;90.00;;;;;;4990293;28;20748;-59
2022/07/11 01:10:33;;;;;;;6.23;3.10;;;12.10;90.00;;;;;;4989875;28;20173;-59
2022/07/11 01:12:59;;;;;;;8.90;3.10;;;12.00;90.60;;;;;;4989360;28;20288;-59
2022/07/11 01:15:25;;;;;;;9.13;2.87;;;11.90;90.90;;;;;;4993059;28;20538;-62
2022/07/11 01:17:52;;;;;;;3.40;2.77;;;11.90;91.30;;;;;;4987655;28;20459;-59
2022/07/11 01:20:19;;;;;;;3.40;2.90;;;11.80;91.50;;;;;;4986843;28;20259;-59
2022/07/11 01:22:49;;;;;;;4.33;2.73;;;11.80;92.10;;;;;;4990634;28;20807;-59
2022/07/11 01:25:29;;;;;;;4.20;2.63;;;11.80;92.30;;;;;;4988660;28;20455;-59
2022/07/11 01:27:59;;;;;;;6.40;2.97;;;11.70;92.50;;;;;;4981269;28;20463;-59
2022/07/11 01:30:26;;;;;;;3.07;2.83;;;11.70;92.60;;;;;;4984760;28;20518;-59
2022/07/11 01:32:53;;;;;;;3.33;2.73;;;11.70;92.70;;;;;;4990870;28;20448;-60
2022/07/11 01:35:19;;;;;;;3.70;2.97;;;11.70;92.90;;;;;;4984395;28;20448;-59
2022/07/11 01:37:44;;;;;;;4.87;2.60;;;11.60;93.30;;;;;;4988106;28;20501;-59
2022/07/11 01:40:11;;;;;;;5.07;2.97;;;11.60;93.60;;;;;;4984435;28;20814;-59
2022/07/11 01:42:36;;;;;;;4.63;2.50;;;11.60;93.90;;;;;;4977594;28;20170;-59
2022/07/11 01:45:03;;;;;;;2.93;2.63;;;11.60;94.10;;;;;;4979853;28;20452;-58
2022/07/11 01:47:28;;;;;;;3.40;2.90;;;11.60;94.30;;;;;;4998890;28;20236;-60
2022/07/11 01:49:55;;;;;;;3.50;2.90;;;11.60;94.30;;;;;;4989086;28;20506;-59
2022/07/11 01:52:21;;;;;;;4.10;3.10;;;11.50;94.40;;;;;;4986944;28;20251;-59
2022/07/11 01:54:47;;;;;;;5.30;2.93;;;11.50;94.50;;;;;;4984197;28;20447;-59
2022/07/11 01:57:13;;;;;;;3.53;2.70;;;11.60;94.30;;;;;;4988748;28;20921;-61
2022/07/11 01:59:39;;;;;;;10.43;2.97;;;11.50;94.20;;;;;;4989959;28;20431;-58
2022/07/11 02:02:04;;;;;;;5.23;2.80;;;11.50;94.50;;;;;;4989823;28;20173;-59
2022/07/11 02:04:30;;;;;;;3.20;2.87;;;11.40;94.50;;;;;;4985700;28;20633;-60
2022/07/11 02:06:56;;;;;;;3.20;2.77;;;11.40;94.60;;;;;;4986130;28;20200;-59
2022/07/11 02:09:21;;;;;;;4.03;2.90;;;11.40;94.50;;;;;;4981277;28;20437;-59
2022/07/11 02:11:47;;;;;;;8.80;3.23;;;11.40;94.40;;;;;;4986752;28;20544;-59
2022/07/11 02:14:13;;;;;;;4.50;2.50;;;11.30;94.50;;;;;;4985001;28;20229;-59
2022/07/11 02:16:39;;;;;;;3.87;3.00;;;11.30;94.90;;;;;;4985438;28;20177;-59
2022/07/11 02:19:06;;;;;;;3.13;2.57;;;11.20;95.40;;;;;;4986458;28;20432;-58
2022/07/11 02:21:32;;;;;;;3.03;2.80;;;11.20;96.00;;;;;;4988310;28;21052;-58
2022/07/11 02:23:58;;;;;;;6.17;3.13;;;11.20;96.10;;;;;;4982492;28;20483;-60
2022/07/11 02:26:24;;;;;;;3.20;2.90;;;11.20;96.00;;;;;;4979542;28;20452;-60
2022/07/11 02:28:49;;;;;;;3.37;3.00;;;11.10;96.30;;;;;;4988648;28;20820;-59
2022/07/11 02:31:15;;;;;;;4.33;2.90;;;11.10;96.90;;;;;;4985774;28;20185;-59
2022/07/11 02:33:41;;;;;;;6.47;3.27;;;11.00;96.80;;;;;;4989348;28;20654;-58
2022/07/11 02:36:07;;;;;;;5.03;3.10;;;11.00;97.00;;;;;;4985918;28;20626;-58
2022/07/11 02:38:34;;;;;;;2.90;2.60;;;11.00;97.00;;;;;;4975688;28;20182;-59
2022/07/11 02:41:00;;;;;;;3.90;3.27;;;10.90;97.10;;;;;;4986344;28;20506;-59
2022/07/11 02:43:26;;;;;;;3.40;2.80;;;10.90;97.00;;;;;;4990182;28;20844;-59
2022/07/11 02:45:52;;;;;;;4.30;2.80;;;10.80;97.30;;;;;;4975883;28;20205;-59
2022/07/11 02:48:17;;;;;;;7.83;2.87;;;10.80;97.80;;;;;;4973831;28;21936;-59
2022/07/11 02:50:43;;;;;;;2.93;2.70;;;10.70;98.30;;;;;;4985140;28;20177;-59
2022/07/11 02:53:09;;;;;;;2.80;2.60;;;10.60;98.80;;;;;;4988411;28;20186;-60
2022/07/11 02:55:34;;;;;;;6.83;4.07;;;10.60;99.20;;;;;;4986782;28;20220;-58
2022/07/11 02:58:00;;;;;;;5.20;3.03;;;10.60;99.60;;;;;;4987140;28;20212;-58
2022/07/11 03:00:27;;;;;;;5.27;3.07;;;10.60;99.50;;;;;;4986857;28;20555;-59
2022/07/11 03:02:53;;;;;;;5.63;3.60;;;10.60;99.90;;;;;;4979673;28;20232;-59
2022/07/11 03:05:18;;;;;;;3.30;3.00;;;10.60;99.90;;;;;;4985318;28;20455;-59
2022/07/11 03:07:44;;;;;;;4.67;3.20;;;10.60;99.90;;;;;;4988749;28;20472;-59
2022/07/11 03:10:10;;;;;;;4.97;3.43;;;10.60;99.70;;;;;;4985321;28;20181;-60
2022/07/11 03:12:36;;;;;;;6.73;3.00;;;10.60;99.90;;;;;;4988418;28;20596;-59
2022/07/11 03:15:02;;;;;;;6.70;3.83;;;10.60;99.70;;;;;;4991017;28;20444;-59
2022/07/11 03:17:27;;;;;;;4.80;3.83;;;10.70;99.70;;;;;;4992410;28;20201;-60
2022/07/11 03:19:53;;;;;;;7.97;3.20;;;10.70;99.40;;;;;;4986280;28;20439;-59
2022/07/11 03:22:19;;;;;;;5.73;3.47;;;10.70;99.50;;;;;;4991924;28;20654;-59
2022/07/11 03:24:44;;;;;;;3.50;3.20;;;10.60;99.80;;;;;;4990391;28;20216;-61
2022/07/11 03:27:10;;;;;;;3.80;3.13;;;10.60;99.50;;;;;;4987765;28;20213;-59
2022/07/11 03:29:36;;;;;;;4.50;3.03;;;10.60;99.80;;;;;;4988447;28;20173;-59
2022/07/11 03:32:02;;;;;;;3.93;2.77;;;10.60;99.90;;;;;;4991609;28;20211;-59
2022/07/11 03:34:28;;;;;;;9.10;3.10;;;10.60;99.90;;;;;;4991918;28;20312;-60
2022/07/11 03:36:54;;;;;;;4.47;3.20;;;10.50;99.90;;;;;;4986282;28;20522;-59
2022/07/11 03:39:23;;;;;;;3.90;3.13;;;10.50;99.90;;;;;;4989640;28;20177;-58
2022/07/11 03:41:49;;;;;;;5.87;3.90;;;10.50;99.90;;;;;;4984477;28;20820;-59
2022/07/11 03:44:15;;;;;;;8.13;3.97;;;10.50;99.90;;;;;;4989388;28;20448;-59
2022/07/11 03:46:40;;;;;;;5.30;3.77;;;10.50;99.90;;;;;;4986922;28;20201;-58
2022/07/11 03:49:06;;;;;;;5.50;3.67;;;10.40;99.90;;;;;;4992957;28;20239;-59
2022/07/11 03:51:31;;;;;;;4.27;3.73;;;10.40;99.90;;;;;;4993000;28;20173;-59
2022/07/11 03:53:57;;;;;;;5.30;4.30;;;10.40;99.90;;;;;;4982291;28;20314;-57
2022/07/11 03:56:23;;;;;;;3.33;3.07;;;10.40;99.90;;;;;;4989455;28;20176;-59
2022/07/11 03:58:49;;;;;;;3.10;2.90;;;10.50;99.90;;;;;;4992085;28;20240;-59
2022/07/11 04:01:15;;;;;;;3.70;3.40;;;10.50;99.90;;;;;;4984119;28;20174;-59
2022/07/11 04:03:41;;;;;;;5.07;3.50;;;10.50;99.90;;;;;;4981144;28;20969;-60
2022/07/11 04:06:07;;;;;;;3.10;2.80;;;10.50;99.90;;;;;;4984705;28;21019;-58
2022/07/11 04:08:33;;;;;;;3.80;3.50;;;10.60;99.90;;;;;;4980861;28;20439;-60
2022/07/11 04:10:58;;;;;;;4.13;2.80;;;10.60;99.90;;;;;;4980545;28;20169;-60
2022/07/11 04:13:24;;;;;;;3.70;3.40;;;10.60;99.90;;;;;;4981521;28;20307;-61
2022/07/11 04:15:50;;;;;;;3.97;3.23;;;10.60;99.90;;;;;;4979794;28;20201;-62
2022/07/11 04:18:15;;;;;;;5.40;4.27;;;10.60;99.90;;;;;;4982272;28;20176;-61
2022/07/11 04:20:41;;;;;;;7.27;3.80;;;10.60;99.90;;;;;;4981752;28;20188;-62
2022/07/11 04:23:07;;;;;;;5.00;3.77;;;10.60;99.90;;;;;;4982211;28;20554;-62
2022/07/11 04:25:34;;;;;;;3.30;3.00;;;10.70;99.90;;;;;;4983310;28;20193;-63
2022/07/11 04:28:00;;;;;;;5.10;3.07;;;10.70;99.90;;;;;;4981321;28;20212;-62
2022/07/11 04:30:25;;;;;;;10.80;3.10;;;10.80;99.90;;;;;;4983335;28;20440;-62
2022/07/11 04:32:51;;;;;;;3.40;3.10;;;10.80;99.90;;;;;;4978875;28;20275;-58
2022/07/11 04:35:17;;;;;;;5.90;3.50;;;10.80;99.90;;;;;;4984573;28;20566;-55
2022/07/11 04:37:44;;;;;;;4.20;3.80;;;10.80;99.90;;;;;;4982797;28;20215;-59
2022/07/11 04:40:09;;;;;;;5.80;3.93;;;10.80;99.90;;;;;;4975349;28;20439;-62
2022/07/11 04:42:35;;;;;;;5.13;3.57;;;10.80;99.60;;;;;;4976438;28;20432;-60
2022/07/11 04:45:01;;;;;;;3.30;3.00;;;10.90;99.70;;;;;;4981871;28;20205;-62
2022/07/11 04:47:26;;;;;;;4.83;3.37;;;10.80;99.60;;;;;;4980444;28;20577;-62
2022/07/11 04:49:52;;;;;;;4.90;2.93;;;10.90;99.90;;;;;;4989397;28;20561;-62
2022/07/11 04:52:18;;;;;;;3.33;2.73;;;10.90;99.90;;;;;;4985421;28;20174;-61
2022/07/11 04:54:44;;;;;;;3.23;2.77;;;11.00;99.90;;;;;;4987760;28;20205;-62
2022/07/11 04:57:11;;;;;;;3.33;3.07;;;11.00;99.70;;;;;;4985545;28;20181;-62
2022/07/11 04:59:36;;;;;;;4.13;3.30;;;11.10;99.10;;;;;;4986975;28;20468;-62
2022/07/11 05:02:02;;;;;;;4.07;3.67;;;11.10;98.60;;;;;;4989394;28;20467;-63
2022/07/11 05:04:27;;;;;;;8.23;3.60;;;11.10;99.30;;;;;;4988876;28;20238;-61
2022/07/11 05:06:53;;;;;;;7.57;4.50;;;11.20;98.70;;;;;;4983014;28;20207;-64
2022/07/11 05:09:19;;;;;;;8.73;4.50;;;11.20;98.80;;;;;;4986023;28;20173;-63
2022/07/11 05:11:44;;;;;;;8.90;3.93;;;11.30;98.60;;;;;;4990447;28;20181;-62
2022/07/11 05:14:10;;;;;;;7.37;4.10;;;11.40;99.00;;;;;;4985465;28;20189;-61
2022/07/11 05:16:36;;;;;;;10.20;3.80;;;11.40;98.30;;;;;;4989331;28;20654;-64
2022/07/11 05:19:01;;;;;;;7.30;4.93;;;11.50;97.40;;;;;;4989199;28;20173;-64
2022/07/11 05:21:27;;;;;;;12.80;5.07;;;11.60;96.60;;;;;;4991822;28;20256;-62
2022/07/11 05:23:52;;;;;;;9.23;3.97;;;11.60;96.40;;;;;;4981250;28;20699;-60
2022/07/11 05:26:18;;;;;;;7.97;5.07;;;11.70;96.80;;;;;;4986169;28;20270;-65
2022/07/11 05:28:44;;;;;;;14.57;6.37;;;11.70;96.70;;;;;;4988155;28;20181;-62
2022/07/11 05:31:10;;;;;;;14.60;6.33;;;11.80;96.10;;;;;;4985864;28;20276;-64
2022/07/11 05:33:36;;;;;;;10.63;5.53;;;11.90;95.70;;;;;;4977639;28;20173;-62
2022/07/11 05:36:02;;;;;;;10.10;5.80;;;11.90;96.40;;;;;;4979922;28;20539;-65
2022/07/11 05:38:28;;;;;;;16.43;6.10;;;12.00;96.60;;;;;;4987155;28;20201;-63
2022/07/11 05:40:54;;;;;;;17.73;6.50;;;12.00;96.30;;;;;;4989412;28;20440;-60
2022/07/11 05:43:20;;;;;;;15.37;5.67;;;12.10;96.90;;;;;;4984913;28;20437;-61
2022/07/11 05:45:45;;;;;;;10.00;6.33;;;12.20;96.50;;;;;;4980640;28;20201;-60
2022/07/11 05:48:11;;;;;;;8.80;6.47;;;12.30;96.00;;;;;;4985416;28;20611;-60
2022/07/11 05:50:37;;;;;;;12.70;5.40;;;12.30;96.50;;;;;;4981016;28;20198;-61
2022/07/11 05:53:03;;;;;;;13.50;5.23;;;12.50;95.90;;;;;;4990585;28;20173;-60
2022/07/11 05:55:29;;;;;;;10.60;6.10;;;12.50;95.20;;;;;;4980638;28;20276;-61
2022/07/11 05:57:55;;;;;;;11.93;5.93;;;12.60;95.30;;;;;;4989776;28;20268;-60
2022/07/11 06:00:25;;;;;;;16.30;5.73;;;12.70;95.20;;;;;;4985332;28;20981;-60
2022/07/11 06:02:51;;;;;;;11.73;6.30;;;12.80;95.00;;;;;;4987016;28;20654;-61
2022/07/11 06:05:17;;;;;;;8.47;5.53;;;13.00;95.00;;;;;;4985598;28;20886;-61
2022/07/11 06:10:31;;;;;;;15.67;7.03;;;13.10;93.80;;;;;;4989128;28;20211;-60
2022/07/11 06:12:58;;;;;;;11.63;7.00;;;13.30;94.20;;;;;;4979063;28;20464;-62
2022/07/11 06:15:24;;;;;;;8.67;5.80;;;13.40;93.70;;;;;;4985429;28;20444;-62
2022/07/11 06:17:50;;;;;;;12.40;6.50;;;13.50;93.40;;;;;;4985529;28;20972;-60
2022/07/11 06:20:16;;;;;;;6.70;6.10;;;13.70;92.90;;;;;;4982615;28;20926;-60
2022/07/11 06:22:42;;;;;;;8.70;5.70;;;13.80;92.60;;;;;;4987834;28;20444;-61
2022/07/11 06:25:09;;;;;;;11.20;5.90;;;13.80;92.20;;;;;;4985089;28;20451;-61
2022/07/11 06:27:35;;;;;;;10.40;5.73;;;13.90;92.70;;;;;;4987567;28;20208;-60
2022/07/11 06:30:01;;;;;;;7.90;5.47;;;14.00;92.50;;;;;;4981816;28;20482;-59
2022/07/11 06:32:26;;;;;;;12.93;6.47;;;14.20;92.40;;;;;;4983348;28;20440;-60
2022/07/11 06:34:52;;;;;;;8.57;6.00;;;14.20;91.00;;;;;;4982649;28;20201;-61
2022/07/11 06:37:19;;;;;;;9.33;5.47;;;14.30;90.30;;;;;;4989250;28;20549;-61
2022/07/11 06:39:45;;;;;;;8.80;6.00;;;14.40;89.00;;;;;;4988247;28;21019;-62
2022/07/11 06:42:10;;;;;;;10.10;4.90;;;14.40;87.90;;;;;;4981469;28;20432;-61
2022/07/11 06:44:36;;;;;;;6.80;4.10;;;14.50;89.70;;;;;;4984578;28;20905;-62
2022/07/11 06:47:02;;;;;;;5.80;3.50;;;14.60;90.00;;;;;;4989508;28;20216;-61
2022/07/11 06:49:27;;;;;;;4.57;3.37;;;14.70;89.50;;;;;;4986827;28;20181;-60
2022/07/11 06:51:53;;;;;;;4.37;2.80;;;14.90;88.30;;;;;;4981750;28;20205;-61
2022/07/11 06:54:19;;;;;;;6.70;3.50;;;15.10;86.80;;;;;;4984954;28;20204;-61
2022/07/11 06:56:44;;;;;;;4.30;3.33;;;15.20;84.50;;;;;;4985139;28;20224;-60
2022/07/11 06:59:10;;;;;;;5.53;3.20;;;15.40;83.80;;;;;;4976772;28;20527;-61
2022/07/11 07:01:36;;;;;;;3.97;3.03;;;15.50;82.20;;;;;;4984453;28;20236;-61
2022/07/11 07:04:01;;;;;;;5.33;2.47;;;15.70;81.90;;;;;;4983306;28;20252;-58
2022/07/11 07:06:27;;;;;;;5.33;2.60;;;15.80;78.40;;;;;;4980413;28;20193;-59
2022/07/11 07:08:53;;;;;;;3.60;2.27;;;15.90;77.00;;;;;;4980624;28;20185;-60
2022/07/11 07:11:19;;;;;;;2.80;2.60;;;16.00;75.70;;;;;;4984578;28;20545;-60
2022/07/11 07:13:45;;;;;;;5.00;2.20;;;16.10;72.30;;;;;;4984847;28;20196;-62
2022/07/11 07:16:11;;;;;;;2.03;1.87;;;16.20;71.30;;;;;;4982843;28;20455;-60
2022/07/11 07:18:42;;;;;;;4.10;2.20;;;16.30;70.90;;;;;;4984212;28;20499;-59
2022/07/11 07:21:08;;;;;;;4.20;1.60;;;16.50;69.10;;;;;;4987424;28;20169;-60
2022/07/11 07:23:33;;;;;;;1.30;1.20;;;16.60;68.70;;;;;;4986133;28;20451;-60
2022/07/11 07:25:59;;;;;;;1.37;1.27;;;16.70;68.30;;;;;;4981059;28;20200;-61
2022/07/11 07:28:28;;;;;;;1.53;1.30;;;16.80;67.00;;;;;;4984103;28;21537;-60
2022/07/11 07:30:54;;;;;;;3.83;1.60;;;17.00;64.70;;;;;;4983429;28;20173;-60
2022/07/11 07:33:19;;;;;;;1.73;1.30;;;17.10;62.80;;;;;;4983029;28;20428;-60
2022/07/11 07:35:45;;;;;;;2.30;1.27;;;17.30;62.40;;;;;;4982932;28;20204;-61
2022/07/11 07:38:10;;;;;;;1.37;1.20;;;17.40;62.10;;;;;;4987246;28;20252;-60
2022/07/11 07:40:36;;;;;;;4.00;1.20;;;17.50;60.60;;;;;;4982412;28;20651;-60
2022/07/11 07:43:01;;;;;;;1.00;0.90;;;17.60;59.60;;;;;;4980533;28;20193;-60
2022/07/11 07:45:27;;;;;;;1.77;0.97;;;17.70;59.00;;;;;;4977743;28;20255;-61
2022/07/11 07:47:53;;;;;;;1.40;1.30;;;17.80;58.40;;;;;;4985353;28;20205;-62
2022/07/11 07:50:18;;;;;;;1.47;1.10;;;17.90;57.80;;;;;;4980824;28;20185;-60
2022/07/11 07:52:44;;;;;;;2.83;0.90;;;18.00;57.80;;;;;;4983269;28;20246;-60
2022/07/11 07:55:10;;;;;;;0.77;0.77;;;18.10;57.50;;;;;;4983535;28;20193;-60
2022/07/11 07:57:35;;;;;;;1.33;0.80;;;18.20;56.70;;;;;;4989914;28;20177;-61
2022/07/11 08:02:48;;;;;;;0.80;0.77;;;18.40;55.60;;;;;;4983585;28;20211;-60
2022/07/11 08:05:14;;;;;;;4.63;1.00;;;18.50;55.50;;;;;;4982352;28;20445;-62
2022/07/11 08:07:39;;;;;;;0.80;0.80;;;18.50;55.50;;;;;;4989459;28;20485;-60
2022/07/11 08:10:05;;;;;;;2.03;1.10;;;18.60;55.60;;;;;;4987062;28;20184;-62
2022/07/11 08:12:31;;;;;;;0.80;0.80;;;18.60;55.10;;;;;;4987418;28;20207;-60
2022/07/11 08:14:57;;;;;;;1.77;1.30;;;18.70;54.40;;;;;;4988928;28;20480;-60
2022/07/11 08:17:22;;;;;;;1.13;0.97;;;18.80;54.10;;;;;;4989702;28;20173;-60
2022/07/11 08:19:48;;;;;;;4.60;1.00;;;18.90;54.00;;;;;;4986294;28;20184;-60
2022/07/11 08:22:14;;;;;;;0.80;0.80;;;18.90;54.00;;;;;;4991410;28;20183;-60
2022/07/11 08:24:39;;;;;;;1.90;0.80;;;19.00;53.90;;;;;;4989541;28;20211;-61
2022/07/11 08:27:05;;;;;;;1.03;0.80;;;19.10;53.60;;;;;;4988454;28;20696;-63
2022/07/11 08:29:30;;;;;;;1.43;1.00;;;19.00;53.70;;;;;;4987315;28;20204;-61
2022/07/11 08:31:56;;;;;;;1.83;0.87;;;19.10;54.00;;;;;;4985630;28;20188;-60
2022/07/11 08:34:22;;;;;;;0.87;0.87;;;19.20;54.40;;;;;;4977530;28;20198;-60
2022/07/11 08:36:47;;;;;;;5.30;0.80;;;19.30;54.50;;;;;;4985303;28;20189;-60
2022/07/11 08:39:13;;;;;;;1.63;1.00;;;19.40;54.50;;;;;;4983580;28;20181;-62
2022/07/11 08:41:43;;;;;;;0.80;0.80;;;19.50;54.00;;;;;;4981742;28;20548;-60
2022/07/11 08:44:10;;;;;;;1.83;0.90;;;19.50;53.50;;;;;;4982976;28;20282;-60
2022/07/11 08:46:37;;;;;;;1.17;1.07;;;19.50;54.10;;;;;;4983521;28;20503;-62
2022/07/11 08:49:05;;;;;;;1.33;0.80;;;19.60;54.60;;;;;;4982611;28;20479;-60
2022/07/11 08:51:31;;;;;;;1.00;0.80;;;19.70;54.20;;;;;;4984037;28;20474;-60
2022/07/11 08:53:57;;;;;;;1.20;0.90;;;19.70;53.30;;;;;;4980543;28;21107;-60
2022/07/11 08:56:27;;;;;;;1.17;1.07;;;19.80;53.40;;;;;;4985056;28;20470;-60
2022/07/11 08:58:53;;;;;;;1.17;1.10;;;19.90;53.30;;;;;;4982960;28;20460;-60
2022/07/11 09:01:29;;;;;;;0.97;0.90;;;19.90;53.80;;;;;;4987174;28;20475;-61
2022/07/11 09:03:56;;;;;;;7.90;1.20;;;20.00;54.30;;;;;;4981983;28;20498;-61
2022/07/11 09:06:21;;;;;;;1.30;1.00;;;20.00;54.00;;;;;;4982178;28;20456;-60
2022/07/11 09:08:47;;;;;;;1.07;0.97;;;20.10;53.30;;;;;;4983714;28;20444;-60
2022/07/11 09:11:13;;;;;;;1.00;1.00;;;20.20;51.90;;;;;;4987821;28;20173;-61
2022/07/11 09:13:38;;;;;;;1.03;0.93;;;20.20;52.30;;;;;;4987324;28;20177;-61
2022/07/11 09:16:08;;;;;;;1.50;1.10;;;20.20;52.80;;;;;;4986565;28;20250;-61
2022/07/11 09:18:34;;;;;;;3.00;1.17;;;20.30;51.80;;;;;;4989993;28;20188;-61
2022/07/11 09:26:36;;;;;;;0.90;0.90;;;20.50;52.40;;;;;;4986558;28;20523;-61
2022/07/11 09:29:12;;;;;;;0.87;0.87;;;20.60;51.80;;;;;;4989518;28;20428;-61
2022/07/11 09:31:40;;;;;;;0.80;0.80;;;20.70;52.20;;;;;;4982828;28;20444;-62
2022/07/11 09:34:08;;;;;;;1.03;0.93;;;20.90;52.00;;;;;;4987353;28;20442;-60
2022/07/11 09:36:56;;;;;;;4.93;1.07;;;21.00;51.50;;;;;;4985714;28;20432;-61
2022/07/11 09:39:24;;;;;;;0.77;0.77;;;21.10;51.20;;;;;;4985626;28;20441;-61
2022/07/11 09:41:51;;;;;;;2.10;0.80;;;21.30;51.20;;;;;;4978148;28;20527;-61
2022/07/11 09:44:21;;;;;;;11.33;1.30;;;21.40;51.10;;;;;;4984480;28;20502;-60
2022/07/11 09:46:51;;;;;;;2.53;1.00;;;21.50;51.00;;;;;;4983487;28;20452;-60
2022/07/11 09:49:38;;;;;;;1.23;0.70;;;21.60;50.50;;;;;;4983779;28;20964;-60
2022/07/11 09:52:15;;;;;;;1.00;1.00;;;21.70;50.00;;;;;;4986265;28;20503;-60
2022/07/11 09:54:56;;;;;;;1.47;0.80;;;21.70;50.00;;;;;;4980540;28;20553;-61
2022/07/11 09:57:33;;;;;;;1.33;1.00;;;21.90;50.60;;;;;;4983515;28;20435;-61
2022/07/11 10:00:00;;;;;;;0.80;0.80;;;22.00;50.00;;;;;;4984344;28;20419;-60
2022/07/11 10:02:26;;;;;;;1.00;0.87;;;22.00;49.50;;;;;;4988081;28;20917;-60
2022/07/11 10:04:52;;;;;;;0.90;0.90;;;22.10;50.00;;;;;;4978521;28;20492;-61
2022/07/11 10:07:18;;;;;;;1.80;1.00;;;22.20;50.10;;;;;;5003067;28;20839;-61
2022/07/11 10:09:44;;;;;;;0.87;0.87;;;22.20;50.40;;;;;;4981774;28;20447;-61
2022/07/11 10:12:10;;;;;;;2.30;1.13;;;22.30;49.30;;;;;;4979127;28;20257;-62
2022/07/11 10:14:40;;;;;;;0.93;0.90;;;22.40;48.60;;;;;;4985388;28;20717;-61
2022/07/11 10:17:14;;;;;;;1.20;1.00;;;22.40;49.90;;;;;;4988131;28;20527;-60
2022/07/11 10:19:57;;;;;;;2.30;0.90;;;22.50;49.30;;;;;;4981183;28;20436;-60
2022/07/11 10:22:33;;;;;;;1.23;1.00;;;22.60;49.10;;;;;;4981518;28;20531;-62
2022/07/11 10:25:05;;;;;;;0.90;0.90;;;22.80;50.00;;;;;;4987173;28;20456;-61
2022/07/11 10:27:43;;;;;;;1.10;1.00;;;22.90;49.70;;;;;;4985619;28;20533;-61
2022/07/11 10:30:08;;;;;;;2.20;0.90;;;23.00;49.60;;;;;;4983842;28;20428;-61
2022/07/11 10:32:57;;;;;;;8.70;1.13;;;23.10;48.30;;;;;;4980512;28;22486;-58
2022/07/11 10:35:23;;;;;;;2.17;1.10;;;23.20;48.30;;;;;;4979779;28;20192;-57
2022/07/11 10:37:53;;;;;;;0.80;0.80;;;23.40;48.80;;;;;;4983606;28;20498;-57
2022/07/11 10:40:42;;;;;;;1.00;0.90;;;23.40;48.90;;;;;;4983185;28;20280;-58
2022/07/11 10:43:07;;;;;;;0.97;0.97;;;23.30;48.30;;;;;;4979775;28;20469;-56
2022/07/11 10:45:58;;;;;;;1.20;0.80;;;23.40;49.40;;;;;;4979434;28;21124;-57
2022/07/11 10:48:25;;;;;;;0.90;0.90;;;23.60;50.60;;;;;;4976927;28;20251;-57
2022/07/11 10:51:17;;;;;;;1.30;1.20;;;23.60;47.80;;;;;;4981551;28;20707;-57
2022/07/11 10:53:48;;;;;;;1.33;0.90;;;23.60;47.70;;;;;;4978623;28;20431;-57
2022/07/11 10:56:20;;;;;;;1.23;1.13;;;23.80;49.20;;;;;;4984179;28;20491;-57
2022/07/11 10:59:06;;;;;;;0.80;0.80;;;23.90;49.20;;;;;;4985929;28;20524;-58
2022/07/11 11:01:32;;;;;;;1.17;1.03;;;24.10;49.30;;;;;;4987756;28;20463;-57
2022/07/11 11:04:45;;;;;;;0.80;0.80;;;24.30;48.10;;;;;;4984287;28;20428;-57
2022/07/11 11:07:38;;;;;;;1.33;1.00;;;24.50;47.70;;;;;;4919782;29;20875;-57
2022/07/11 11:10:07;;;;;;;1.00;1.00;;;24.80;47.40;;;;;;4924485;29;20435;-57
2022/07/11 11:13:09;;;;;;;1.00;0.90;;;25.00;48.40;;;;;;4962451;28;20953;-57
2022/07/11 11:15:35;;;;;;;1.43;1.00;;;25.20;47.30;;;;;;4986371;28;20521;-57
2022/07/11 11:18:22;;;;;;;0.87;0.80;;;25.30;46.10;;;;;;4983980;28;20532;-57
2022/07/11 11:21:00;;;;;;;2.50;0.93;;;25.20;46.30;;;;;;4985262;28;20196;-58
2022/07/11 11:23:31;;;;;;;0.90;0.80;;;25.10;46.20;;;;;;4986903;28;20519;-57
2022/07/11 11:26:23;;;;;;;1.10;1.00;;;25.10;46.20;;;;;;4980595;28;20487;-57
2022/07/11 11:29:00;;;;;;;1.83;1.07;;;25.20;46.00;;;;;;4975037;28;20558;-58
2022/07/11 11:31:29;;;;;;;2.00;0.87;;;25.20;45.60;;;;;;4987544;28;20454;-57
2022/07/11 11:33:56;;;;;;;1.23;0.90;;;25.30;46.10;;;;;;4981264;28;20432;-58
2022/07/11 11:36:23;;;;;;;1.10;1.03;;;25.40;46.40;;;;;;4990129;28;20416;-57
2022/07/11 11:38:49;;;;;;;1.10;0.80;;;25.20;46.80;;;;;;4981527;28;20665;-57
2022/07/11 11:41:29;;;;;;;1.47;1.00;;;25.10;46.50;;;;;;4986717;28;20440;-59
2022/07/11 11:43:58;;;;;;;2.70;0.97;;;24.80;46.80;;;;;;4984206;28;20429;-59
2022/07/11 11:46:25;;;;;;;1.30;1.00;;;24.80;47.80;;;;;;4990105;28;20463;-61
2022/07/11 11:48:55;;;;;;;1.73;0.97;;;25.00;49.30;;;;;;4985387;28;20953;-60
2022/07/11 11:51:21;;;;;;;0.97;0.87;;;25.40;49.10;;;;;;4984288;28;20550;-60
2022/07/11 11:53:50;;;;;;;1.20;1.10;;;25.60;48.50;;;;;;4985234;28;20964;-60
2022/07/11 11:56:29;;;;;;;1.17;0.93;;;25.60;47.10;;;;;;4989936;28;20518;-62
2022/07/11 11:58:57;;;;;;;3.53;1.17;;;25.50;47.50;;;;;;4982132;28;20530;-61
2022/07/11 12:01:31;;;;;;;1.20;1.10;;;25.20;47.40;;;;;;4982894;28;20428;-59
2022/07/11 12:04:05;;;;;;;1.30;1.13;;;24.90;47.50;;;;;;4986396;28;20513;-60
2022/07/11 12:06:33;;;;;;;1.20;1.07;;;24.70;47.30;;;;;;4981392;28;20459;-60
2022/07/11 12:09:10;;;;;;;2.53;0.80;;;24.50;47.00;;;;;;4986304;28;20516;-60
2022/07/11 12:11:41;;;;;;;1.27;0.90;;;24.40;47.30;;;;;;4988725;28;20489;-60
2022/07/11 12:14:09;;;;;;;0.90;0.90;;;24.60;47.40;;;;;;4981971;28;20497;-61
2022/07/11 12:16:41;;;;;;;1.37;0.90;;;24.80;47.50;;;;;;4988371;28;20909;-61
2022/07/11 12:19:09;;;;;;;1.13;1.03;;;24.80;47.10;;;;;;4988256;28;20436;-61
2022/07/11 12:21:39;;;;;;;1.27;1.17;;;25.10;48.20;;;;;;4988320;28;20953;-62
2022/07/11 12:24:08;;;;;;;1.00;0.97;;;25.40;48.00;;;;;;4981632;28;20486;-62
2022/07/11 12:26:37;;;;;;;2.53;1.00;;;25.50;46.10;;;;;;4986103;28;20466;-64
2022/07/11 12:29:12;;;;;;;1.63;0.90;;;25.50;46.00;;;;;;4978794;28;20473;-61
2022/07/11 12:31:47;;;;;;;1.60;1.10;;;25.40;46.40;;;;;;4981157;28;20439;-62
2022/07/11 12:34:14;;;;;;;1.20;1.10;;;25.10;47.70;;;;;;4981697;28;21111;-61
2022/07/11 12:36:40;;;;;;;1.00;1.00;;;24.90;48.00;;;;;;4974204;28;20427;-61
2022/07/11 12:39:06;;;;;;;2.23;1.07;;;24.80;48.00;;;;;;4977012;28;20510;-62
2022/07/11 12:41:32;;;;;;;1.63;1.07;;;24.90;47.60;;;;;;4977113;28;20437;-62
2022/07/11 12:46:43;;;;;;;1.00;1.00;;;25.40;47.60;;;;;;4983464;28;20475;-62
2022/07/11 12:49:11;;;;;;;1.17;1.00;;;25.70;47.60;;;;;;4983771;28;20455;-61
2022/07/11 12:51:40;;;;;;;2.00;0.90;;;25.80;47.90;;;;;;4982123;28;20479;-61
2022/07/11 12:54:11;;;;;;;1.33;1.10;;;26.10;47.60;;;;;;4981361;28;20507;-61
2022/07/11 12:56:38;;;;;;;1.00;0.90;;;26.50;46.50;;;;;;4980633;28;20528;-61
2022/07/11 12:59:05;;;;;;;1.20;1.10;;;26.90;46.30;;;;;;4981023;28;21162;-61
2022/07/11 13:01:32;;;;;;;1.43;1.27;;;27.30;46.60;;;;;;4983508;28;20435;-61
2022/07/11 13:03:59;;;;;;;2.90;1.10;;;27.50;43.40;;;;;;4981651;28;20467;-61